sensor_id;sensor_type;location;lat;lon;timestamp;temperature;humidity
52799;DHT22;38667;42.872;74.622;2023-08-30T00:02:11;18.70;44.50
52799;DHT22;38667;42.872;74.622;2023-08-30T00:04:37;18.70;44.60
52799;DHT22;38667;42.872;74.622;2023-08-30T00:07:04;18.70;45.00
52799;DHT22;38667;42.872;74.622;2023-08-30T00:09:30;18.70;45.20
52799;DHT22;38667;42.872;74.622;2023-08-30T00:11:56;18.70;44.90
52799;DHT22;38667;42.872;74.622;2023-08-30T00:14:24;18.70;45.00
52799;DHT22;38667;42.872;74.622;2023-08-30T00:16:50;18.70;45.40
52799;DHT22;38667;42.872;74.622;2023-08-30T00:19:17;18.70;45.60
52799;DHT22;38667;42.872;74.622;2023-08-30T00:21:43;18.60;45.80
52799;DHT22;38667;42.872;74.622;2023-08-30T00:24:09;18.60;46.20
52799;DHT22;38667;42.872;74.622;2023-08-30T00:26:35;18.60;47.60
52799;DHT22;38667;42.872;74.622;2023-08-30T00:29:02;18.60;46.60
52799;DHT22;38667;42.872;74.622;2023-08-30T00:31:29;18.50;46.20
52799;DHT22;38667;42.872;74.622;2023-08-30T00:33:56;18.50;46.20
52799;DHT22;38667;42.872;74.622;2023-08-30T00:36:22;18.50;47.70
52799;DHT22;38667;42.872;74.622;2023-08-30T00:38:48;18.60;48.00
52799;DHT22;38667;42.872;74.622;2023-08-30T00:41:15;18.50;49.10
52799;DHT22;38667;42.872;74.622;2023-08-30T00:43:41;18.50;46.70
52799;DHT22;38667;42.872;74.622;2023-08-30T00:46:07;18.50;46.20
52799;DHT22;38667;42.872;74.622;2023-08-30T00:48:35;18.50;48.40
52799;DHT22;38667;42.872;74.622;2023-08-30T00:51:01;18.40;49.60
52799;DHT22;38667;42.872;74.622;2023-08-30T00:53:28;18.40;49.90
52799;DHT22;38667;42.872;74.622;2023-08-30T00:55:54;18.30;50.50
52799;DHT22;38667;42.872;74.622;2023-08-30T00:58:21;18.20;51.40
52799;DHT22;38667;42.872;74.622;2023-08-30T01:00:47;18.00;51.90
52799;DHT22;38667;42.872;74.622;2023-08-30T01:03:14;17.90;54.60
52799;DHT22;38667;42.872;74.622;2023-08-30T01:05:41;17.80;53.10
52799;DHT22;38667;42.872;74.622;2023-08-30T01:08:08;17.70;53.50
52799;DHT22;38667;42.872;74.622;2023-08-30T01:10:43;17.60;54.20
52799;DHT22;38667;42.872;74.622;2023-08-30T01:13:13;17.50;54.80
52799;DHT22;38667;42.872;74.622;2023-08-30T01:15:45;17.60;55.10
52799;DHT22;38667;42.872;74.622;2023-08-30T01:18:12;17.60;56.40
52799;DHT22;38667;42.872;74.622;2023-08-30T01:20:42;17.50;55.60
52799;DHT22;38667;42.872;74.622;2023-08-30T01:23:19;17.50;56.10
52799;DHT22;38667;42.872;74.622;2023-08-30T01:25:55;17.50;56.20
52799;DHT22;38667;42.872;74.622;2023-08-30T01:28:24;17.40;57.20
52799;DHT22;38667;42.872;74.622;2023-08-30T01:30:52;17.50;57.20
52799;DHT22;38667;42.872;74.622;2023-08-30T01:33:19;17.60;58.00
52799;DHT22;38667;42.872;74.622;2023-08-30T01:35:46;17.70;57.50
52799;DHT22;38667;42.872;74.622;2023-08-30T01:38:13;17.80;56.10
52799;DHT22;38667;42.872;74.622;2023-08-30T01:40:42;17.90;57.80
52799;DHT22;38667;42.872;74.622;2023-08-30T01:43:09;18.00;57.50
52799;DHT22;38667;42.872;74.622;2023-08-30T01:45:39;18.00;58.20
52799;DHT22;38667;42.872;74.622;2023-08-30T01:48:09;18.10;58.60
52799;DHT22;38667;42.872;74.622;2023-08-30T01:50:36;18.10;57.80
52799;DHT22;38667;42.872;74.622;2023-08-30T01:53:04;18.20;58.80
52799;DHT22;38667;42.872;74.622;2023-08-30T01:55:32;18.30;59.40
52799;DHT22;38667;42.872;74.622;2023-08-30T01:57:59;18.30;58.90
52799;DHT22;38667;42.872;74.622;2023-08-30T02:00:25;18.40;58.40
52799;DHT22;38667;42.872;74.622;2023-08-30T02:02:53;18.50;57.90
52799;DHT22;38667;42.872;74.622;2023-08-30T02:05:19;18.60;57.40
52799;DHT22;38667;42.872;74.622;2023-08-30T02:08:05;18.60;56.90
52799;DHT22;38667;42.872;74.622;2023-08-30T02:10:35;18.80;56.50
52799;DHT22;38667;42.872;74.622;2023-08-30T02:13:04;18.90;56.80
52799;DHT22;38667;42.872;74.622;2023-08-30T02:15:33;19.00;56.10
52799;DHT22;38667;42.872;74.622;2023-08-30T02:18:03;19.10;55.60
52799;DHT22;38667;42.872;74.622;2023-08-30T02:20:31;19.20;55.50
52799;DHT22;38667;42.872;74.622;2023-08-30T02:22:59;19.30;54.80
52799;DHT22;38667;42.872;74.622;2023-08-30T02:25:25;19.40;54.40
52799;DHT22;38667;42.872;74.622;2023-08-30T02:27:51;19.50;54.20
52799;DHT22;38667;42.872;74.622;2023-08-30T02:30:18;19.60;54.00
52799;DHT22;38667;42.872;74.622;2023-08-30T02:32:44;19.70;53.90
52799;DHT22;38667;42.872;74.622;2023-08-30T02:35:12;19.80;53.70
52799;DHT22;38667;42.872;74.622;2023-08-30T02:37:38;20.00;53.40
52799;DHT22;38667;42.872;74.622;2023-08-30T02:40:06;20.10;53.20
52799;DHT22;38667;42.872;74.622;2023-08-30T02:42:32;20.10;52.90
52799;DHT22;38667;42.872;74.622;2023-08-30T02:44:58;20.20;52.50
52799;DHT22;38667;42.872;74.622;2023-08-30T02:47:25;20.20;52.50
52799;DHT22;38667;42.872;74.622;2023-08-30T02:49:51;20.20;52.80
52799;DHT22;38667;42.872;74.622;2023-08-30T02:52:19;20.20;52.90
52799;DHT22;38667;42.872;74.622;2023-08-30T02:54:45;20.30;53.00
52799;DHT22;38667;42.872;74.622;2023-08-30T02:57:12;20.30;52.90
52799;DHT22;38667;42.872;74.622;2023-08-30T02:59:38;20.40;52.70
52799;DHT22;38667;42.872;74.622;2023-08-30T03:02:04;20.40;52.50
52799;DHT22;38667;42.872;74.622;2023-08-30T03:04:31;20.40;52.30
52799;DHT22;38667;42.872;74.622;2023-08-30T03:06:57;20.50;51.90
52799;DHT22;38667;42.872;74.622;2023-08-30T03:09:25;20.60;52.00
52799;DHT22;38667;42.872;74.622;2023-08-30T03:11:51;20.70;51.90
52799;DHT22;38667;42.872;74.622;2023-08-30T03:14:18;20.80;51.70
52799;DHT22;38667;42.872;74.622;2023-08-30T03:16:44;20.90;51.30
52799;DHT22;38667;42.872;74.622;2023-08-30T03:19:10;20.90;51.00
52799;DHT22;38667;42.872;74.622;2023-08-30T03:21:37;21.00;50.80
52799;DHT22;38667;42.872;74.622;2023-08-30T03:24:03;21.00;50.30
52799;DHT22;38667;42.872;74.622;2023-08-30T03:26:31;21.10;49.70
52799;DHT22;38667;42.872;74.622;2023-08-30T03:28:58;21.20;49.40
52799;DHT22;38667;42.872;74.622;2023-08-30T03:31:24;21.20;49.30
52799;DHT22;38667;42.872;74.622;2023-08-30T03:33:50;21.30;49.30
52799;DHT22;38667;42.872;74.622;2023-08-30T03:36:17;21.40;48.80
52799;DHT22;38667;42.872;74.622;2023-08-30T03:38:44;21.50;48.60
52799;DHT22;38667;42.872;74.622;2023-08-30T03:41:11;21.60;48.30
52799;DHT22;38667;42.872;74.622;2023-08-30T03:43:39;21.70;48.20
52799;DHT22;38667;42.872;74.622;2023-08-30T03:46:06;21.80;48.00
52799;DHT22;38667;42.872;74.622;2023-08-30T03:48:32;21.90;47.70
52799;DHT22;38667;42.872;74.622;2023-08-30T03:50:59;21.90;47.60
52799;DHT22;38667;42.872;74.622;2023-08-30T03:53:25;22.10;47.00
52799;DHT22;38667;42.872;74.622;2023-08-30T03:55:51;22.20;43.60
52799;DHT22;38667;42.872;74.622;2023-08-30T03:58:19;22.40;43.10
52799;DHT22;38667;42.872;74.622;2023-08-30T04:00:46;22.50;42.60
52799;DHT22;38667;42.872;74.622;2023-08-30T04:03:14;22.60;43.00
52799;DHT22;38667;42.872;74.622;2023-08-30T04:05:41;22.70;43.40
52799;DHT22;38667;42.872;74.622;2023-08-30T04:08:08;22.80;43.40
52799;DHT22;38667;42.872;74.622;2023-08-30T04:10:35;22.90;43.60
52799;DHT22;38667;42.872;74.622;2023-08-30T04:13:02;23.00;41.00
52799;DHT22;38667;42.872;74.622;2023-08-30T04:15:28;23.10;40.80
52799;DHT22;38667;42.872;74.622;2023-08-30T04:17:56;23.30;40.10
52799;DHT22;38667;42.872;74.622;2023-08-30T04:20:22;23.40;39.60
52799;DHT22;38667;42.872;74.622;2023-08-30T04:22:49;23.50;40.30
52799;DHT22;38667;42.872;74.622;2023-08-30T04:25:15;23.60;40.40
52799;DHT22;38667;42.872;74.622;2023-08-30T04:27:41;23.70;41.20
52799;DHT22;38667;42.872;74.622;2023-08-30T04:30:09;23.80;41.80
52799;DHT22;38667;42.872;74.622;2023-08-30T04:32:36;23.90;42.00
52799;DHT22;38667;42.872;74.622;2023-08-30T04:35:04;24.00;40.20
52799;DHT22;38667;42.872;74.622;2023-08-30T04:37:31;24.00;40.10
52799;DHT22;38667;42.872;74.622;2023-08-30T04:39:57;24.00;40.70
52799;DHT22;38667;42.872;74.622;2023-08-30T04:42:24;24.10;41.30
52799;DHT22;38667;42.872;74.622;2023-08-30T04:44:50;24.10;41.60
52799;DHT22;38667;42.872;74.622;2023-08-30T04:47:16;24.10;42.60
52799;DHT22;38667;42.872;74.622;2023-08-30T04:49:43;24.10;41.90
52799;DHT22;38667;42.872;74.622;2023-08-30T04:52:10;24.20;41.40
52799;DHT22;38667;42.872;74.622;2023-08-30T04:54:37;24.20;41.40
52799;DHT22;38667;42.872;74.622;2023-08-30T04:57:03;24.20;41.10
52799;DHT22;38667;42.872;74.622;2023-08-30T04:59:30;24.20;40.30
52799;DHT22;38667;42.872;74.622;2023-08-30T05:01:56;24.20;39.50
52799;DHT22;38667;42.872;74.622;2023-08-30T05:04:23;24.30;39.50
52799;DHT22;38667;42.872;74.622;2023-08-30T05:06:50;24.30;40.00
52799;DHT22;38667;42.872;74.622;2023-08-30T05:09:18;24.40;39.80
52799;DHT22;38667;42.872;74.622;2023-08-30T05:11:44;24.40;38.60
52799;DHT22;38667;42.872;74.622;2023-08-30T05:14:10;24.50;38.60
52799;DHT22;38667;42.872;74.622;2023-08-30T05:16:37;24.50;37.80
52799;DHT22;38667;42.872;74.622;2023-08-30T05:19:03;24.60;37.70
52799;DHT22;38667;42.872;74.622;2023-08-30T05:21:29;24.60;37.10
52799;DHT22;38667;42.872;74.622;2023-08-30T05:23:55;24.80;37.20
52799;DHT22;38667;42.872;74.622;2023-08-30T05:26:23;24.90;36.10
52799;DHT22;38667;42.872;74.622;2023-08-30T05:28:50;25.10;32.10
52799;DHT22;38667;42.872;74.622;2023-08-30T05:31:16;25.20;34.20
52799;DHT22;38667;42.872;74.622;2023-08-30T05:33:42;25.20;36.10
52799;DHT22;38667;42.872;74.622;2023-08-30T05:36:08;25.30;36.40
52799;DHT22;38667;42.872;74.622;2023-08-30T05:38:35;25.40;36.30
52799;DHT22;38667;42.872;74.622;2023-08-30T05:41:01;25.40;35.90
52799;DHT22;38667;42.872;74.622;2023-08-30T05:43:30;25.50;35.60
52799;DHT22;38667;42.872;74.622;2023-08-30T05:45:56;25.80;34.20
52799;DHT22;38667;42.872;74.622;2023-08-30T05:48:22;26.10;34.40
52799;DHT22;38667;42.872;74.622;2023-08-30T05:50:49;26.50;34.10
52799;DHT22;38667;42.872;74.622;2023-08-30T05:53:15;27.00;34.20
52799;DHT22;38667;42.872;74.622;2023-08-30T05:55:41;27.90;33.30
52799;DHT22;38667;42.872;74.622;2023-08-30T05:58:08;28.50;32.80
52799;DHT22;38667;42.872;74.622;2023-08-30T06:00:35;28.60;32.40
52799;DHT22;38667;42.872;74.622;2023-08-30T06:03:02;28.30;30.70
52799;DHT22;38667;42.872;74.622;2023-08-30T06:05:28;28.10;30.70
52799;DHT22;38667;42.872;74.622;2023-08-30T06:07:55;27.90;29.60
52799;DHT22;38667;42.872;74.622;2023-08-30T06:10:21;27.70;30.10
52799;DHT22;38667;42.872;74.622;2023-08-30T06:12:47;27.60;30.30
52799;DHT22;38667;42.872;74.622;2023-08-30T06:15:14;27.40;31.50
52799;DHT22;38667;42.872;74.622;2023-08-30T06:17:42;27.30;32.60
52799;DHT22;38667;42.872;74.622;2023-08-30T06:20:08;27.10;33.70
52799;DHT22;38667;42.872;74.622;2023-08-30T06:22:35;27.00;34.40
52799;DHT22;38667;42.872;74.622;2023-08-30T06:25:01;27.00;34.50
52799;DHT22;38667;42.872;74.622;2023-08-30T06:27:27;27.00;33.70
52799;DHT22;38667;42.872;74.622;2023-08-30T06:29:54;27.00;31.90
52799;DHT22;38667;42.872;74.622;2023-08-30T06:32:20;27.10;31.50
52799;DHT22;38667;42.872;74.622;2023-08-30T06:34:48;27.10;31.50
52799;DHT22;38667;42.872;74.622;2023-08-30T06:37:14;27.30;31.50
52799;DHT22;38667;42.872;74.622;2023-08-30T06:39:41;27.60;31.40
52799;DHT22;38667;42.872;74.622;2023-08-30T06:42:07;28.10;30.40
52799;DHT22;38667;42.872;74.622;2023-08-30T06:44:33;28.40;29.50
52799;DHT22;38667;42.872;74.622;2023-08-30T06:47:00;28.40;29.70
52799;DHT22;38667;42.872;74.622;2023-08-30T06:49:26;28.30;30.10
52799;DHT22;38667;42.872;74.622;2023-08-30T06:51:54;28.60;29.40
52799;DHT22;38667;42.872;74.622;2023-08-30T06:54:20;29.50;27.10
52799;DHT22;38667;42.872;74.622;2023-08-30T06:56:57;29.50;27.30
52799;DHT22;38667;42.872;74.622;2023-08-30T06:59:24;29.10;28.60
52799;DHT22;38667;42.872;74.622;2023-08-30T07:01:50;28.90;27.30
52799;DHT22;38667;42.872;74.622;2023-08-30T07:04:16;28.70;28.30
52799;DHT22;38667;42.872;74.622;2023-08-30T07:06:43;28.50;28.80
52799;DHT22;38667;42.872;74.622;2023-08-30T07:09:11;28.30;28.30
52799;DHT22;38667;42.872;74.622;2023-08-30T07:11:38;28.30;26.90
52799;DHT22;38667;42.872;74.622;2023-08-30T07:14:04;28.30;28.00
52799;DHT22;38667;42.872;74.622;2023-08-30T07:16:31;28.30;28.40
52799;DHT22;38667;42.872;74.622;2023-08-30T07:18:57;28.40;27.70
52799;DHT22;38667;42.872;74.622;2023-08-30T07:21:24;28.40;29.00
52799;DHT22;38667;42.872;74.622;2023-08-30T07:23:50;28.30;29.40
52799;DHT22;38667;42.872;74.622;2023-08-30T07:26:18;28.30;29.50
52799;DHT22;38667;42.872;74.622;2023-08-30T07:28:46;28.30;28.90
52799;DHT22;38667;42.872;74.622;2023-08-30T07:31:12;28.50;27.10
52799;DHT22;38667;42.872;74.622;2023-08-30T07:33:38;28.60;26.40
52799;DHT22;38667;42.872;74.622;2023-08-30T07:36:05;28.70;27.90
52799;DHT22;38667;42.872;74.622;2023-08-30T07:38:31;28.60;27.70
52799;DHT22;38667;42.872;74.622;2023-08-30T07:40:58;28.60;27.40
52799;DHT22;38667;42.872;74.622;2023-08-30T07:43:25;28.50;27.90
52799;DHT22;38667;42.872;74.622;2023-08-30T07:45:52;28.50;27.10
52799;DHT22;38667;42.872;74.622;2023-08-30T07:48:18;28.50;26.90
52799;DHT22;38667;42.872;74.622;2023-08-30T07:50:44;28.30;29.40
52799;DHT22;38667;42.872;74.622;2023-08-30T07:53:11;27.80;29.80
52799;DHT22;38667;42.872;74.622;2023-08-30T07:55:37;27.20;31.00
52799;DHT22;38667;42.872;74.622;2023-08-30T07:58:04;27.00;30.50
52799;DHT22;38667;42.872;74.622;2023-08-30T08:00:32;27.30;29.90
52799;DHT22;38667;42.872;74.622;2023-08-30T08:02:59;27.30;29.80
52799;DHT22;38667;42.872;74.622;2023-08-30T08:05:25;26.90;28.20
52799;DHT22;38667;42.872;74.622;2023-08-30T08:07:52;26.60;31.10
52799;DHT22;38667;42.872;74.622;2023-08-30T08:10:19;26.50;30.90
52799;DHT22;38667;42.872;74.622;2023-08-30T08:12:45;26.60;28.60
52799;DHT22;38667;42.872;74.622;2023-08-30T08:15:12;26.60;29.40
52799;DHT22;38667;42.872;74.622;2023-08-30T08:17:40;26.70;26.90
52799;DHT22;38667;42.872;74.622;2023-08-30T08:20:07;26.70;28.90
52799;DHT22;38667;42.872;74.622;2023-08-30T08:22:33;26.40;30.40
52799;DHT22;38667;42.872;74.622;2023-08-30T08:24:59;26.20;32.20
52799;DHT22;38667;42.872;74.622;2023-08-30T08:27:26;26.20;30.80
52799;DHT22;38667;42.872;74.622;2023-08-30T08:29:52;26.60;27.80
52799;DHT22;38667;42.872;74.622;2023-08-30T08:32:19;26.70;28.50
52799;DHT22;38667;42.872;74.622;2023-08-30T08:34:47;26.80;28.00
52799;DHT22;38667;42.872;74.622;2023-08-30T08:37:13;26.80;27.50
52799;DHT22;38667;42.872;74.622;2023-08-30T08:39:39;26.80;29.30
52799;DHT22;38667;42.872;74.622;2023-08-30T08:42:06;26.50;30.40
52799;DHT22;38667;42.872;74.622;2023-08-30T08:44:34;26.70;29.90
52799;DHT22;38667;42.872;74.622;2023-08-30T08:47:01;26.90;29.60
52799;DHT22;38667;42.872;74.622;2023-08-30T08:49:28;27.10;29.00
52799;DHT22;38667;42.872;74.622;2023-08-30T08:51:56;26.90;27.70
52799;DHT22;38667;42.872;74.622;2023-08-30T08:54:23;26.80;29.20
52799;DHT22;38667;42.872;74.622;2023-08-30T08:56:50;26.90;28.10
52799;DHT22;38667;42.872;74.622;2023-08-30T08:59:16;27.20;26.90
52799;DHT22;38667;42.872;74.622;2023-08-30T09:01:43;27.30;29.00
52799;DHT22;38667;42.872;74.622;2023-08-30T09:04:10;27.00;25.90
52799;DHT22;38667;42.872;74.622;2023-08-30T09:06:37;26.90;27.70
52799;DHT22;38667;42.872;74.622;2023-08-30T09:09:05;26.80;26.80
52799;DHT22;38667;42.872;74.622;2023-08-30T09:11:32;26.80;28.30
52799;DHT22;38667;42.872;74.622;2023-08-30T09:13:58;26.40;30.50
52799;DHT22;38667;42.872;74.622;2023-08-30T09:16:25;26.10;31.00
52799;DHT22;38667;42.872;74.622;2023-08-30T09:18:58;26.00;30.50
52799;DHT22;38667;42.872;74.622;2023-08-30T09:21:24;25.80;31.70
52799;DHT22;38667;42.872;74.622;2023-08-30T09:23:57;25.70;30.30
52799;DHT22;38667;42.872;74.622;2023-08-30T09:26:25;25.60;31.90
52799;DHT22;38667;42.872;74.622;2023-08-30T09:28:52;25.30;32.10
52799;DHT22;38667;42.872;74.622;2023-08-30T09:31:18;25.40;28.50
52799;DHT22;38667;42.872;74.622;2023-08-30T09:33:45;25.60;30.20
52799;DHT22;38667;42.872;74.622;2023-08-30T09:36:12;25.70;30.90
52799;DHT22;38667;42.872;74.622;2023-08-30T09:38:38;25.70;31.80
52799;DHT22;38667;42.872;74.622;2023-08-30T09:41:04;25.50;32.30
52799;DHT22;38667;42.872;74.622;2023-08-30T09:43:33;25.30;32.30
52799;DHT22;38667;42.872;74.622;2023-08-30T09:46:03;25.40;31.30
52799;DHT22;38667;42.872;74.622;2023-08-30T09:48:30;25.60;30.90
52799;DHT22;38667;42.872;74.622;2023-08-30T09:50:58;25.60;31.50
52799;DHT22;38667;42.872;74.622;2023-08-30T09:53:26;25.40;31.60
52799;DHT22;38667;42.872;74.622;2023-08-30T09:55:55;25.30;32.40
52799;DHT22;38667;42.872;74.622;2023-08-30T09:58:22;25.10;32.70
52799;DHT22;38667;42.872;74.622;2023-08-30T10:00:51;25.20;32.90
52799;DHT22;38667;42.872;74.622;2023-08-30T10:03:18;25.30;34.20
52799;DHT22;38667;42.872;74.622;2023-08-30T10:05:46;25.20;34.30
52799;DHT22;38667;42.872;74.622;2023-08-30T10:08:13;25.20;33.80
52799;DHT22;38667;42.872;74.622;2023-08-30T10:10:40;25.10;34.30
52799;DHT22;38667;42.872;74.622;2023-08-30T10:13:07;25.00;34.30
52799;DHT22;38667;42.872;74.622;2023-08-30T10:15:35;24.80;34.70
52799;DHT22;38667;42.872;74.622;2023-08-30T10:18:08;24.80;35.40
52799;DHT22;38667;42.872;74.622;2023-08-30T10:20:36;24.90;35.30
52799;DHT22;38667;42.872;74.622;2023-08-30T10:23:03;24.80;35.60
52799;DHT22;38667;42.872;74.622;2023-08-30T10:25:30;24.70;36.00
52799;DHT22;38667;42.872;74.622;2023-08-30T10:27:59;24.70;36.50
52799;DHT22;38667;42.872;74.622;2023-08-30T10:30:26;24.80;36.70
52799;DHT22;38667;42.872;74.622;2023-08-30T10:32:52;24.90;36.60
52799;DHT22;38667;42.872;74.622;2023-08-30T10:35:20;24.80;36.70
52799;DHT22;38667;42.872;74.622;2023-08-30T10:37:54;24.80;36.80
52799;DHT22;38667;42.872;74.622;2023-08-30T10:40:20;24.80;37.30
52799;DHT22;38667;42.872;74.622;2023-08-30T10:42:47;24.80;37.40
52799;DHT22;38667;42.872;74.622;2023-08-30T10:45:13;24.90;37.30
52799;DHT22;38667;42.872;74.622;2023-08-30T10:47:40;24.80;37.90
52799;DHT22;38667;42.872;74.622;2023-08-30T10:50:09;24.90;36.60
52799;DHT22;38667;42.872;74.622;2023-08-30T10:52:37;24.80;37.80
52799;DHT22;38667;42.872;74.622;2023-08-30T10:55:08;24.80;36.70
52799;DHT22;38667;42.872;74.622;2023-08-30T10:57:34;24.70;37.30
52799;DHT22;38667;42.872;74.622;2023-08-30T11:00:06;24.70;37.20
52799;DHT22;38667;42.872;74.622;2023-08-30T11:02:32;24.70;37.20
52799;DHT22;38667;42.872;74.622;2023-08-30T11:04:59;24.80;37.40
52799;DHT22;38667;42.872;74.622;2023-08-30T11:07:26;24.80;37.60
52799;DHT22;38667;42.872;74.622;2023-08-30T11:09:54;24.80;37.50
52799;DHT22;38667;42.872;74.622;2023-08-30T11:12:21;24.80;37.60
52799;DHT22;38667;42.872;74.622;2023-08-30T11:14:47;24.70;37.40
52799;DHT22;38667;42.872;74.622;2023-08-30T11:17:15;24.70;37.50
52799;DHT22;38667;42.872;74.622;2023-08-30T11:19:42;24.60;37.70
52799;DHT22;38667;42.872;74.622;2023-08-30T11:22:08;24.60;37.60
52799;DHT22;38667;42.872;74.622;2023-08-30T11:24:35;24.60;38.20
52799;DHT22;38667;42.872;74.622;2023-08-30T11:27:04;24.70;38.80
52799;DHT22;38667;42.872;74.622;2023-08-30T11:29:30;24.70;38.40
52799;DHT22;38667;42.872;74.622;2023-08-30T11:31:56;24.70;38.40
52799;DHT22;38667;42.872;74.622;2023-08-30T11:34:23;24.70;38.30
52799;DHT22;38667;42.872;74.622;2023-08-30T11:36:50;24.70;38.10
52799;DHT22;38667;42.872;74.622;2023-08-30T11:39:17;24.70;37.40
52799;DHT22;38667;42.872;74.622;2023-08-30T11:41:43;24.80;36.90
52799;DHT22;38667;42.872;74.622;2023-08-30T11:44:11;24.90;35.80
52799;DHT22;38667;42.872;74.622;2023-08-30T11:46:38;24.90;36.60
52799;DHT22;38667;42.872;74.622;2023-08-30T11:49:05;24.80;36.00
52799;DHT22;38667;42.872;74.622;2023-08-30T11:51:31;24.80;36.50
52799;DHT22;38667;42.872;74.622;2023-08-30T11:53:58;24.90;36.30
52799;DHT22;38667;42.872;74.622;2023-08-30T11:56:25;24.90;36.30
52799;DHT22;38667;42.872;74.622;2023-08-30T11:58:51;24.80;36.70
52799;DHT22;38667;42.872;74.622;2023-08-30T12:01:19;24.90;36.80
52799;DHT22;38667;42.872;74.622;2023-08-30T12:03:46;24.90;36.70
52799;DHT22;38667;42.872;74.622;2023-08-30T12:06:12;24.80;36.40
52799;DHT22;38667;42.872;74.622;2023-08-30T12:08:39;24.90;36.70
52799;DHT22;38667;42.872;74.622;2023-08-30T12:11:05;24.70;37.00
52799;DHT22;38667;42.872;74.622;2023-08-30T12:13:32;24.60;37.10
52799;DHT22;38667;42.872;74.622;2023-08-30T12:15:59;24.60;38.20
52799;DHT22;38667;42.872;74.622;2023-08-30T12:18:29;24.50;37.80
52799;DHT22;38667;42.872;74.622;2023-08-30T12:20:57;24.40;37.70
52799;DHT22;38667;42.872;74.622;2023-08-30T12:23:24;24.40;38.00
52799;DHT22;38667;42.872;74.622;2023-08-30T12:26:01;24.50;38.60
52799;DHT22;38667;42.872;74.622;2023-08-30T12:28:28;24.50;38.30
52799;DHT22;38667;42.872;74.622;2023-08-30T12:30:54;24.60;37.50
52799;DHT22;38667;42.872;74.622;2023-08-30T12:33:21;24.50;37.60
52799;DHT22;38667;42.872;74.622;2023-08-30T12:35:49;24.60;36.80
52799;DHT22;38667;42.872;74.622;2023-08-30T12:38:15;24.70;36.30
52799;DHT22;38667;42.872;74.622;2023-08-30T12:40:41;24.80;36.40
52799;DHT22;38667;42.872;74.622;2023-08-30T12:43:08;24.70;36.50
52799;DHT22;38667;42.872;74.622;2023-08-30T12:45:34;24.80;36.60
52799;DHT22;38667;42.872;74.622;2023-08-30T12:48:00;24.80;36.20
52799;DHT22;38667;42.872;74.622;2023-08-30T12:50:27;24.80;36.40
52799;DHT22;38667;42.872;74.622;2023-08-30T12:52:55;24.80;36.50
52799;DHT22;38667;42.872;74.622;2023-08-30T12:55:21;24.80;36.80
52799;DHT22;38667;42.872;74.622;2023-08-30T12:57:47;24.70;36.40
52799;DHT22;38667;42.872;74.622;2023-08-30T13:00:14;24.70;36.60
52799;DHT22;38667;42.872;74.622;2023-08-30T13:02:40;24.70;36.90
52799;DHT22;38667;42.872;74.622;2023-08-30T13:05:07;24.60;37.10
52799;DHT22;38667;42.872;74.622;2023-08-30T13:07:33;24.60;37.40
52799;DHT22;38667;42.872;74.622;2023-08-30T13:10:02;24.50;37.50
52799;DHT22;38667;42.872;74.622;2023-08-30T13:12:29;24.50;37.70
52799;DHT22;38667;42.872;74.622;2023-08-30T13:14:55;24.40;37.80
52799;DHT22;38667;42.872;74.622;2023-08-30T13:17:21;24.30;38.10
52799;DHT22;38667;42.872;74.622;2023-08-30T13:19:47;24.30;38.40
52799;DHT22;38667;42.872;74.622;2023-08-30T13:22:14;24.20;38.50
52799;DHT22;38667;42.872;74.622;2023-08-30T13:24:40;24.20;38.50
52799;DHT22;38667;42.872;74.622;2023-08-30T13:27:08;24.20;38.50
52799;DHT22;38667;42.872;74.622;2023-08-30T13:29:34;24.20;38.60
52799;DHT22;38667;42.872;74.622;2023-08-30T13:32:02;24.10;38.50
52799;DHT22;38667;42.872;74.622;2023-08-30T13:34:28;24.20;38.40
52799;DHT22;38667;42.872;74.622;2023-08-30T13:36:55;24.20;38.40
52799;DHT22;38667;42.872;74.622;2023-08-30T13:39:21;24.20;38.70
52799;DHT22;38667;42.872;74.622;2023-08-30T13:41:47;24.20;38.80
52799;DHT22;38667;42.872;74.622;2023-08-30T13:44:16;24.10;38.80
52799;DHT22;38667;42.872;74.622;2023-08-30T13:46:43;24.10;39.00
52799;DHT22;38667;42.872;74.622;2023-08-30T13:49:10;24.10;39.20
52799;DHT22;38667;42.872;74.622;2023-08-30T13:51:36;24.10;39.70
52799;DHT22;38667;42.872;74.622;2023-08-30T13:54:03;24.00;41.00
52799;DHT22;38667;42.872;74.622;2023-08-30T13:56:29;24.00;41.20
52799;DHT22;38667;42.872;74.622;2023-08-30T13:58:56;23.90;41.10
52799;DHT22;38667;42.872;74.622;2023-08-30T14:01:24;23.90;41.60
52799;DHT22;38667;42.872;74.622;2023-08-30T14:03:51;23.90;40.50
52799;DHT22;38667;42.872;74.622;2023-08-30T14:06:17;23.90;42.00
52799;DHT22;38667;42.872;74.622;2023-08-30T14:08:43;23.80;41.60
52799;DHT22;38667;42.872;74.622;2023-08-30T14:11:10;23.80;40.80
52799;DHT22;38667;42.872;74.622;2023-08-30T14:13:36;23.80;40.60
52799;DHT22;38667;42.872;74.622;2023-08-30T14:16:03;23.80;40.50
52799;DHT22;38667;42.872;74.622;2023-08-30T14:18:31;23.80;41.20
52799;DHT22;38667;42.872;74.622;2023-08-30T14:20:57;23.80;41.50
52799;DHT22;38667;42.872;74.622;2023-08-30T14:23:24;23.70;41.50
52799;DHT22;38667;42.872;74.622;2023-08-30T14:25:56;23.80;41.80
52799;DHT22;38667;42.872;74.622;2023-08-30T14:28:22;23.80;41.20
52799;DHT22;38667;42.872;74.622;2023-08-30T14:30:49;23.70;41.30
52799;DHT22;38667;42.872;74.622;2023-08-30T14:33:15;23.70;41.60
52799;DHT22;38667;42.872;74.622;2023-08-30T14:35:43;23.70;42.20
52799;DHT22;38667;42.872;74.622;2023-08-30T14:38:10;23.60;42.00
52799;DHT22;38667;42.872;74.622;2023-08-30T14:40:36;23.70;42.40
52799;DHT22;38667;42.872;74.622;2023-08-30T14:43:03;23.70;42.00
52799;DHT22;38667;42.872;74.622;2023-08-30T14:45:30;23.70;42.10
52799;DHT22;38667;42.872;74.622;2023-08-30T14:47:56;23.70;41.50
52799;DHT22;38667;42.872;74.622;2023-08-30T14:50:22;23.70;43.60
52799;DHT22;38667;42.872;74.622;2023-08-30T14:52:50;23.60;42.90
52799;DHT22;38667;42.872;74.622;2023-08-30T14:55:17;23.60;43.20
52799;DHT22;38667;42.872;74.622;2023-08-30T14:57:43;23.60;43.60
52799;DHT22;38667;42.872;74.622;2023-08-30T15:00:10;23.50;44.30
52799;DHT22;38667;42.872;74.622;2023-08-30T15:02:36;23.40;44.80
52799;DHT22;38667;42.872;74.622;2023-08-30T15:05:03;23.40;44.50
52799;DHT22;38667;42.872;74.622;2023-08-30T15:07:29;23.40;42.60
52799;DHT22;38667;42.872;74.622;2023-08-30T15:09:57;23.40;42.30
52799;DHT22;38667;42.872;74.622;2023-08-30T15:12:23;23.40;42.60
52799;DHT22;38667;42.872;74.622;2023-08-30T15:14:50;23.40;43.20